sensor_id;sensor_type;location;lat;lon;timestamp;temperature;humidity
8862;DHT22;4799;50.996;4.754;2022-11-15T00:00:25;10.00;99.90
8862;DHT22;4799;50.996;4.754;2022-11-15T00:02:54;10.00;99.90
8862;DHT22;4799;50.996;4.754;2022-11-15T00:05:20;10.10;99.90
8862;DHT22;4799;50.996;4.754;2022-11-15T00:07:46;10.10;99.90
8862;DHT22;4799;50.996;4.754;2022-11-15T00:10:12;10.10;99.90
8862;DHT22;4799;50.996;4.754;2022-11-15T00:12:38;10.10;99.90
8862;DHT22;4799;50.996;4.754;2022-11-15T00:15:04;10.20;99.90
8862;DHT22;4799;50.996;4.754;2022-11-15T00:17:30;10.20;99.90
8862;DHT22;4799;50.996;4.754;2022-11-15T00:19:56;10.30;99.90
8862;DHT22;4799;50.996;4.754;2022-11-15T00:22:22;10.20;99.90
8862;DHT22;4799;50.996;4.754;2022-11-15T00:24:48;10.30;99.90
8862;DHT22;4799;50.996;4.754;2022-11-15T00:27:13;10.30;99.90
8862;DHT22;4799;50.996;4.754;2022-11-15T00:29:39;10.30;99.90
8862;DHT22;4799;50.996;4.754;2022-11-15T00:32:09;10.40;99.90
8862;DHT22;4799;50.996;4.754;2022-11-15T00:34:35;10.40;99.90
8862;DHT22;4799;50.996;4.754;2022-11-15T00:37:01;10.40;99.90
8862;DHT22;4799;50.996;4.754;2022-11-15T00:39:27;10.40;99.90
8862;DHT22;4799;50.996;4.754;2022-11-15T00:41:53;10.40;99.90
8862;DHT22;4799;50.996;4.754;2022-11-15T00:44:18;10.50;99.90
8862;DHT22;4799;50.996;4.754;2022-11-15T00:46:44;10.50;99.90
8862;DHT22;4799;50.996;4.754;2022-11-15T00:49:10;10.50;99.90
8862;DHT22;4799;50.996;4.754;2022-11-15T00:51:35;10.50;99.90
8862;DHT22;4799;50.996;4.754;2022-11-15T00:54:01;10.50;99.90
8862;DHT22;4799;50.996;4.754;2022-11-15T00:56:27;10.60;99.90
8862;DHT22;4799;50.996;4.754;2022-11-15T00:58:53;10.60;99.90
8862;DHT22;4799;50.996;4.754;2022-11-15T01:01:19;10.60;99.90
8862;DHT22;4799;50.996;4.754;2022-11-15T01:03:44;10.60;99.90
8862;DHT22;4799;50.996;4.754;2022-11-15T01:06:10;10.60;99.90
8862;DHT22;4799;50.996;4.754;2022-11-15T01:08:40;10.70;99.90
8862;DHT22;4799;50.996;4.754;2022-11-15T01:11:10;10.70;99.90
8862;DHT22;4799;50.996;4.754;2022-11-15T01:13:37;10.70;99.90
8862;DHT22;4799;50.996;4.754;2022-11-15T01:16:08;10.70;99.90
8862;DHT22;4799;50.996;4.754;2022-11-15T01:18:34;10.70;99.90
8862;DHT22;4799;50.996;4.754;2022-11-15T01:21:08;10.80;99.90
8862;DHT22;4799;50.996;4.754;2022-11-15T01:23:34;10.80;99.90
8862;DHT22;4799;50.996;4.754;2022-11-15T01:26:00;10.80;99.90
8862;DHT22;4799;50.996;4.754;2022-11-15T01:28:33;10.80;99.90
8862;DHT22;4799;50.996;4.754;2022-11-15T01:31:00;10.90;99.90
8862;DHT22;4799;50.996;4.754;2022-11-15T01:33:26;10.90;99.90
8862;DHT22;4799;50.996;4.754;2022-11-15T01:35:52;10.90;99.90
8862;DHT22;4799;50.996;4.754;2022-11-15T01:38:18;11.00;99.90
8862;DHT22;4799;50.996;4.754;2022-11-15T01:40:44;11.00;99.90
8862;DHT22;4799;50.996;4.754;2022-11-15T01:43:22;11.00;99.90
8862;DHT22;4799;50.996;4.754;2022-11-15T01:45:56;11.00;99.90
8862;DHT22;4799;50.996;4.754;2022-11-15T01:48:31;11.00;99.90
8862;DHT22;4799;50.996;4.754;2022-11-15T01:51:00;11.00;99.90
8862;DHT22;4799;50.996;4.754;2022-11-15T01:53:27;11.10;99.90
8862;DHT22;4799;50.996;4.754;2022-11-15T01:55:55;11.10;99.90
8862;DHT22;4799;50.996;4.754;2022-11-15T01:58:21;11.10;99.90
8862;DHT22;4799;50.996;4.754;2022-11-15T02:00:48;11.10;99.90
8862;DHT22;4799;50.996;4.754;2022-11-15T02:03:15;11.10;99.90
8862;DHT22;4799;50.996;4.754;2022-11-15T02:05:41;11.20;99.90
8862;DHT22;4799;50.996;4.754;2022-11-15T02:08:09;11.20;99.90
8862;DHT22;4799;50.996;4.754;2022-11-15T02:10:46;11.20;99.90
8862;DHT22;4799;50.996;4.754;2022-11-15T02:13:15;11.20;99.90
8862;DHT22;4799;50.996;4.754;2022-11-15T02:18:34;11.20;99.90
8862;DHT22;4799;50.996;4.754;2022-11-15T02:29:13;11.10;99.90
8862;DHT22;4799;50.996;4.754;2022-11-15T02:37:33;11.20;99.90
8862;DHT22;4799;50.996;4.754;2022-11-15T02:42:33;11.10;99.90
8862;DHT22;4799;50.996;4.754;2022-11-15T02:45:33;11.10;99.90
8862;DHT22;4799;50.996;4.754;2022-11-15T02:48:01;11.10;99.90
8862;DHT22;4799;50.996;4.754;2022-11-15T02:50:30;11.10;99.90
8862;DHT22;4799;50.996;4.754;2022-11-15T02:52:57;11.10;99.90
8862;DHT22;4799;50.996;4.754;2022-11-15T02:55:28;11.10;99.90
8862;DHT22;4799;50.996;4.754;2022-11-15T03:03:48;11.10;99.90
8862;DHT22;4799;50.996;4.754;2022-11-15T03:06:27;11.10;99.90
8862;DHT22;4799;50.996;4.754;2022-11-15T03:09:09;11.10;99.90
8862;DHT22;4799;50.996;4.754;2022-11-15T03:11:45;11.10;99.90
8862;DHT22;4799;50.996;4.754;2022-11-15T03:14:25;11.10;99.90
8862;DHT22;4799;50.996;4.754;2022-11-15T03:17:27;11.10;99.90
8862;DHT22;4799;50.996;4.754;2022-11-15T03:19:56;11.10;99.90
8862;DHT22;4799;50.996;4.754;2022-11-15T03:22:25;11.10;99.90
8862;DHT22;4799;50.996;4.754;2022-11-15T03:25:05;11.20;99.90
8862;DHT22;4799;50.996;4.754;2022-11-15T03:27:37;11.20;99.90
8862;DHT22;4799;50.996;4.754;2022-11-15T03:30:06;11.20;99.90
8862;DHT22;4799;50.996;4.754;2022-11-15T03:32:37;11.20;99.90
8862;DHT22;4799;50.996;4.754;2022-11-15T03:35:11;11.20;99.90
8862;DHT22;4799;50.996;4.754;2022-11-15T03:40:07;11.20;99.90
8862;DHT22;4799;50.996;4.754;2022-11-15T03:42:46;11.30;99.90
8862;DHT22;4799;50.996;4.754;2022-11-15T03:45:22;11.30;99.90
8862;DHT22;4799;50.996;4.754;2022-11-15T03:47:53;11.30;99.90
8862;DHT22;4799;50.996;4.754;2022-11-15T03:50:21;11.30;99.90
8862;DHT22;4799;50.996;4.754;2022-11-15T03:52:49;11.30;99.90
8862;DHT22;4799;50.996;4.754;2022-11-15T03:55:18;11.30;99.90
8862;DHT22;4799;50.996;4.754;2022-11-15T03:57:44;11.30;99.90
8862;DHT22;4799;50.996;4.754;2022-11-15T04:00:10;11.30;99.90
8862;DHT22;4799;50.996;4.754;2022-11-15T04:02:36;11.30;99.90
8862;DHT22;4799;50.996;4.754;2022-11-15T04:05:02;11.40;99.90
8862;DHT22;4799;50.996;4.754;2022-11-15T04:07:28;11.30;99.90
8862;DHT22;4799;50.996;4.754;2022-11-15T04:09:54;11.40;99.90
8862;DHT22;4799;50.996;4.754;2022-11-15T04:12:30;11.30;99.90
8862;DHT22;4799;50.996;4.754;2022-11-15T04:15:07;11.30;99.90
8862;DHT22;4799;50.996;4.754;2022-11-15T04:17:44;11.30;99.90
8862;DHT22;4799;50.996;4.754;2022-11-15T04:20:21;11.30;99.90
8862;DHT22;4799;50.996;4.754;2022-11-15T04:23:10;11.30;99.90
8862;DHT22;4799;50.996;4.754;2022-11-15T04:25:56;11.30;99.90
8862;DHT22;4799;50.996;4.754;2022-11-15T04:28:22;11.30;99.90
8862;DHT22;4799;50.996;4.754;2022-11-15T04:30:48;11.30;99.90
8862;DHT22;4799;50.996;4.754;2022-11-15T04:33:14;11.30;99.90
8862;DHT22;4799;50.996;4.754;2022-11-15T04:35:40;11.30;99.90
8862;DHT22;4799;50.996;4.754;2022-11-15T04:38:07;11.30;99.90
8862;DHT22;4799;50.996;4.754;2022-11-15T04:40:34;11.30;99.90
8862;DHT22;4799;50.996;4.754;2022-11-15T04:43:00;11.30;99.90
8862;DHT22;4799;50.996;4.754;2022-11-15T04:45:26;11.30;99.90
8862;DHT22;4799;50.996;4.754;2022-11-15T04:47:51;11.30;99.90
8862;DHT22;4799;50.996;4.754;2022-11-15T04:50:17;11.30;99.90
8862;DHT22;4799;50.996;4.754;2022-11-15T04:52:50;11.20;99.90
8862;DHT22;4799;50.996;4.754;2022-11-15T04:55:16;11.20;99.90
8862;DHT22;4799;50.996;4.754;2022-11-15T04:57:42;11.20;99.90
8862;DHT22;4799;50.996;4.754;2022-11-15T05:00:11;11.20;99.90
8862;DHT22;4799;50.996;4.754;2022-11-15T05:02:37;11.20;99.90
8862;DHT22;4799;50.996;4.754;2022-11-15T05:05:21;11.20;99.90
8862;DHT22;4799;50.996;4.754;2022-11-15T05:07:47;11.10;99.90
8862;DHT22;4799;50.996;4.754;2022-11-15T05:10:13;11.10;99.90
8862;DHT22;4799;50.996;4.754;2022-11-15T05:12:39;11.00;99.90
8862;DHT22;4799;50.996;4.754;2022-11-15T05:15:05;11.00;99.90
8862;DHT22;4799;50.996;4.754;2022-11-15T05:17:31;11.00;99.90
8862;DHT22;4799;50.996;4.754;2022-11-15T05:19:56;10.90;99.90
8862;DHT22;4799;50.996;4.754;2022-11-15T05:22:22;10.90;99.90
8862;DHT22;4799;50.996;4.754;2022-11-15T05:24:48;10.90;99.90
8862;DHT22;4799;50.996;4.754;2022-11-15T05:27:14;10.90;99.90
8862;DHT22;4799;50.996;4.754;2022-11-15T05:29:39;10.90;99.90
8862;DHT22;4799;50.996;4.754;2022-11-15T05:32:06;10.90;99.90
8862;DHT22;4799;50.996;4.754;2022-11-15T05:34:33;10.90;99.90
8862;DHT22;4799;50.996;4.754;2022-11-15T05:36:59;10.90;99.90
8862;DHT22;4799;50.996;4.754;2022-11-15T05:39:25;10.90;99.90
8862;DHT22;4799;50.996;4.754;2022-11-15T05:41:58;10.80;99.90
8862;DHT22;4799;50.996;4.754;2022-11-15T05:44:25;10.90;99.90
8862;DHT22;4799;50.996;4.754;2022-11-15T05:46:52;10.90;99.90
8862;DHT22;4799;50.996;4.754;2022-11-15T05:49:21;10.80;99.90
8862;DHT22;4799;50.996;4.754;2022-11-15T05:51:49;10.80;99.90
8862;DHT22;4799;50.996;4.754;2022-11-15T05:54:17;10.80;99.90
8862;DHT22;4799;50.996;4.754;2022-11-15T05:56:44;10.80;99.90
8862;DHT22;4799;50.996;4.754;2022-11-15T05:59:11;10.80;99.90
8862;DHT22;4799;50.996;4.754;2022-11-15T06:01:37;10.80;99.90
8862;DHT22;4799;50.996;4.754;2022-11-15T06:04:04;10.80;99.90
8862;DHT22;4799;50.996;4.754;2022-11-15T06:06:30;10.70;99.90
8862;DHT22;4799;50.996;4.754;2022-11-15T06:08:55;10.70;99.90
8862;DHT22;4799;50.996;4.754;2022-11-15T06:11:21;10.70;99.90
8862;DHT22;4799;50.996;4.754;2022-11-15T06:13:47;10.60;99.90
8862;DHT22;4799;50.996;4.754;2022-11-15T06:16:12;10.60;99.90
8862;DHT22;4799;50.996;4.754;2022-11-15T06:18:38;10.50;99.90
8862;DHT22;4799;50.996;4.754;2022-11-15T06:21:04;10.50;99.90
8862;DHT22;4799;50.996;4.754;2022-11-15T06:23:34;10.50;99.90
8862;DHT22;4799;50.996;4.754;2022-11-15T06:26:01;10.50;99.90
8862;DHT22;4799;50.996;4.754;2022-11-15T06:28:31;10.50;99.90
8862;DHT22;4799;50.996;4.754;2022-11-15T06:31:05;10.50;99.90
8862;DHT22;4799;50.996;4.754;2022-11-15T06:33:31;10.40;99.90
8862;DHT22;4799;50.996;4.754;2022-11-15T06:36:05;10.40;99.90
8862;DHT22;4799;50.996;4.754;2022-11-15T06:38:32;10.40;99.90
8862;DHT22;4799;50.996;4.754;2022-11-15T06:41:06;10.30;99.90
8862;DHT22;4799;50.996;4.754;2022-11-15T06:43:32;10.20;99.90
8862;DHT22;4799;50.996;4.754;2022-11-15T06:45:59;10.10;99.90
8862;DHT22;4799;50.996;4.754;2022-11-15T06:48:26;10.00;99.90
8862;DHT22;4799;50.996;4.754;2022-11-15T06:50:53;10.00;99.90
8862;DHT22;4799;50.996;4.754;2022-11-15T06:53:19;9.90;99.90
8862;DHT22;4799;50.996;4.754;2022-11-15T06:55:44;9.90;99.90
8862;DHT22;4799;50.996;4.754;2022-11-15T06:58:10;9.80;99.90
8862;DHT22;4799;50.996;4.754;2022-11-15T07:00:36;9.70;99.90
8862;DHT22;4799;50.996;4.754;2022-11-15T07:03:02;9.70;99.90
8862;DHT22;4799;50.996;4.754;2022-11-15T07:05:29;9.60;99.90
8862;DHT22;4799;50.996;4.754;2022-11-15T07:07:55;9.50;99.90
8862;DHT22;4799;50.996;4.754;2022-11-15T07:10:22;9.50;99.90
8862;DHT22;4799;50.996;4.754;2022-11-15T07:12:51;9.40;99.90
8862;DHT22;4799;50.996;4.754;2022-11-15T07:15:17;9.40;99.90
8862;DHT22;4799;50.996;4.754;2022-11-15T07:17:43;9.30;99.90
8862;DHT22;4799;50.996;4.754;2022-11-15T07:20:10;9.30;99.90
8862;DHT22;4799;50.996;4.754;2022-11-15T07:22:36;9.20;99.90
8862;DHT22;4799;50.996;4.754;2022-11-15T07:25:01;9.20;99.90
8862;DHT22;4799;50.996;4.754;2022-11-15T07:27:27;9.20;99.90
8862;DHT22;4799;50.996;4.754;2022-11-15T07:29:53;9.20;99.90
8862;DHT22;4799;50.996;4.754;2022-11-15T07:32:19;9.10;99.90
8862;DHT22;4799;50.996;4.754;2022-11-15T07:34:44;9.10;99.90
8862;DHT22;4799;50.996;4.754;2022-11-15T07:37:11;9.10;99.90
8862;DHT22;4799;50.996;4.754;2022-11-15T07:39:37;9.20;99.90
8862;DHT22;4799;50.996;4.754;2022-11-15T07:42:03;9.20;99.90
8862;DHT22;4799;50.996;4.754;2022-11-15T07:44:48;9.10;99.90
8862;DHT22;4799;50.996;4.754;2022-11-15T07:47:13;9.20;99.90
8862;DHT22;4799;50.996;4.754;2022-11-15T07:49:39;9.20;99.90
8862;DHT22;4799;50.996;4.754;2022-11-15T07:52:05;9.20;99.90
8862;DHT22;4799;50.996;4.754;2022-11-15T07:54:31;9.30;99.90
8862;DHT22;4799;50.996;4.754;2022-11-15T07:56:56;9.30;99.90
8862;DHT22;4799;50.996;4.754;2022-11-15T07:59:22;9.40;99.90
8862;DHT22;4799;50.996;4.754;2022-11-15T08:01:48;9.40;99.90
8862;DHT22;4799;50.996;4.754;2022-11-15T08:04:14;9.40;99.90
8862;DHT22;4799;50.996;4.754;2022-11-15T08:06:40;9.50;99.90
8862;DHT22;4799;50.996;4.754;2022-11-15T08:09:05;9.50;99.90
8862;DHT22;4799;50.996;4.754;2022-11-15T08:11:31;9.50;99.90
8862;DHT22;4799;50.996;4.754;2022-11-15T08:13:57;9.50;99.90
8862;DHT22;4799;50.996;4.754;2022-11-15T08:16:23;9.60;99.90
8862;DHT22;4799;50.996;4.754;2022-11-15T08:18:48;9.60;99.90
8862;DHT22;4799;50.996;4.754;2022-11-15T08:21:18;9.70;99.90
8862;DHT22;4799;50.996;4.754;2022-11-15T08:23:44;9.70;99.90
8862;DHT22;4799;50.996;4.754;2022-11-15T08:26:10;9.80;99.90
8862;DHT22;4799;50.996;4.754;2022-11-15T08:28:36;9.90;99.90
8862;DHT22;4799;50.996;4.754;2022-11-15T08:31:03;9.90;99.90
8862;DHT22;4799;50.996;4.754;2022-11-15T08:33:29;10.00;99.90
8862;DHT22;4799;50.996;4.754;2022-11-15T08:35:59;10.00;99.90
8862;DHT22;4799;50.996;4.754;2022-11-15T08:38:25;10.10;99.90
8862;DHT22;4799;50.996;4.754;2022-11-15T08:40:53;10.10;99.90
8862;DHT22;4799;50.996;4.754;2022-11-15T08:43:19;10.20;99.90
8862;DHT22;4799;50.996;4.754;2022-11-15T08:45:45;10.30;99.90
8862;DHT22;4799;50.996;4.754;2022-11-15T08:48:11;10.30;99.90
8862;DHT22;4799;50.996;4.754;2022-11-15T08:50:37;10.40;99.90
8862;DHT22;4799;50.996;4.754;2022-11-15T08:53:07;10.40;99.90
8862;DHT22;4799;50.996;4.754;2022-11-15T08:55:36;10.40;99.90
8862;DHT22;4799;50.996;4.754;2022-11-15T08:58:03;10.50;99.90
8862;DHT22;4799;50.996;4.754;2022-11-15T09:00:29;10.50;99.90
8862;DHT22;4799;50.996;4.754;2022-11-15T09:02:55;10.50;99.90
8862;DHT22;4799;50.996;4.754;2022-11-15T09:05:20;10.50;99.90
8862;DHT22;4799;50.996;4.754;2022-11-15T09:07:46;10.60;99.90
8862;DHT22;4799;50.996;4.754;2022-11-15T09:10:12;10.60;99.90
8862;DHT22;4799;50.996;4.754;2022-11-15T09:12:38;10.60;99.90
8862;DHT22;4799;50.996;4.754;2022-11-15T09:15:05;10.70;99.90
8862;DHT22;4799;50.996;4.754;2022-11-15T09:17:31;10.70;99.90
8862;DHT22;4799;50.996;4.754;2022-11-15T09:19:56;10.80;99.90
8862;DHT22;4799;50.996;4.754;2022-11-15T09:22:22;10.80;99.90
8862;DHT22;4799;50.996;4.754;2022-11-15T09:24:48;10.90;99.90
8862;DHT22;4799;50.996;4.754;2022-11-15T09:27:13;11.00;99.90
8862;DHT22;4799;50.996;4.754;2022-11-15T09:29:39;11.00;99.90
8862;DHT22;4799;50.996;4.754;2022-11-15T09:32:05;11.10;99.90
8862;DHT22;4799;50.996;4.754;2022-11-15T09:34:31;11.20;99.90
8862;DHT22;4799;50.996;4.754;2022-11-15T09:36:56;11.20;99.90
8862;DHT22;4799;50.996;4.754;2022-11-15T09:39:22;11.30;99.90
8862;DHT22;4799;50.996;4.754;2022-11-15T09:47:41;11.40;99.90
8862;DHT22;4799;50.996;4.754;2022-11-15T09:50:14;11.50;99.90
8862;DHT22;4799;50.996;4.754;2022-11-15T09:52:44;11.50;99.90
8862;DHT22;4799;50.996;4.754;2022-11-15T09:55:12;11.60;99.90
8862;DHT22;4799;50.996;4.754;2022-11-15T09:57:52;11.70;99.90
8862;DHT22;4799;50.996;4.754;2022-11-15T10:00:43;11.80;99.90
8862;DHT22;4799;50.996;4.754;2022-11-15T10:03:16;11.90;99.90
8862;DHT22;4799;50.996;4.754;2022-11-15T10:05:44;12.00;99.90
8862;DHT22;4799;50.996;4.754;2022-11-15T10:10:45;12.20;99.90
8862;DHT22;4799;50.996;4.754;2022-11-15T10:15:51;12.30;99.90
8862;DHT22;4799;50.996;4.754;2022-11-15T10:18:53;12.30;99.90
8862;DHT22;4799;50.996;4.754;2022-11-15T10:21:21;12.30;99.90
8862;DHT22;4799;50.996;4.754;2022-11-15T10:23:50;12.30;99.90
8862;DHT22;4799;50.996;4.754;2022-11-15T10:26:17;12.40;99.90
8862;DHT22;4799;50.996;4.754;2022-11-15T10:28:43;12.50;99.90
8862;DHT22;4799;50.996;4.754;2022-11-15T10:31:23;12.60;99.90
8862;DHT22;4799;50.996;4.754;2022-11-15T10:33:49;12.80;99.90
8862;DHT22;4799;50.996;4.754;2022-11-15T10:36:21;12.90;99.90
8862;DHT22;4799;50.996;4.754;2022-11-15T10:44:23;13.00;99.90
8862;DHT22;4799;50.996;4.754;2022-11-15T10:49:22;12.80;99.90
8862;DHT22;4799;50.996;4.754;2022-11-15T10:52:16;12.70;99.90
8862;DHT22;4799;50.996;4.754;2022-11-15T10:57:33;12.60;99.90
8862;DHT22;4799;50.996;4.754;2022-11-15T11:07:59;12.40;99.90
8862;DHT22;4799;50.996;4.754;2022-11-15T11:10:27;12.40;99.90
8862;DHT22;4799;50.996;4.754;2022-11-15T11:12:52;12.40;99.90
8862;DHT22;4799;50.996;4.754;2022-11-15T11:15:19;12.40;99.90
8862;DHT22;4799;50.996;4.754;2022-11-15T11:21:34;12.50;99.90
8862;DHT22;4799;50.996;4.754;2022-11-15T11:23:58;12.60;99.90
8862;DHT22;4799;50.996;4.754;2022-11-15T11:40:50;13.20;99.90
8862;DHT22;4799;50.996;4.754;2022-11-15T11:49:10;13.30;99.90
8862;DHT22;4799;50.996;4.754;2022-11-15T11:51:53;13.30;99.90
8862;DHT22;4799;50.996;4.754;2022-11-15T11:57:00;13.50;99.90
8862;DHT22;4799;50.996;4.754;2022-11-15T11:59:43;13.50;99.90
8862;DHT22;4799;50.996;4.754;2022-11-15T12:02:38;13.60;99.90
8862;DHT22;4799;50.996;4.754;2022-11-15T12:05:16;13.60;99.90
8862;DHT22;4799;50.996;4.754;2022-11-15T12:07:45;13.70;99.90
8862;DHT22;4799;50.996;4.754;2022-11-15T12:10:17;13.80;99.90
8862;DHT22;4799;50.996;4.754;2022-11-15T12:13:12;13.80;99.90
8862;DHT22;4799;50.996;4.754;2022-11-15T12:15:43;13.80;99.90
8862;DHT22;4799;50.996;4.754;2022-11-15T12:18:15;13.90;99.90
8862;DHT22;4799;50.996;4.754;2022-11-15T12:20:59;13.90;99.90
8862;DHT22;4799;50.996;4.754;2022-11-15T12:23:32;13.90;99.90
8862;DHT22;4799;50.996;4.754;2022-11-15T12:26:14;13.90;99.90
8862;DHT22;4799;50.996;4.754;2022-11-15T12:29:03;13.90;99.90
8862;DHT22;4799;50.996;4.754;2022-11-15T12:31:39;13.90;99.90
8862;DHT22;4799;50.996;4.754;2022-11-15T12:36:54;14.00;99.90
8862;DHT22;4799;50.996;4.754;2022-11-15T12:39:20;14.00;99.90
8862;DHT22;4799;50.996;4.754;2022-11-15T12:59:55;13.90;99.90
8862;DHT22;4799;50.996;4.754;2022-11-15T13:02:43;13.80;99.90
8862;DHT22;4799;50.996;4.754;2022-11-15T13:17:38;13.80;99.90
8862;DHT22;4799;50.996;4.754;2022-11-15T13:23:14;13.90;99.90
8862;DHT22;4799;50.996;4.754;2022-11-15T13:26:05;14.00;99.90
8862;DHT22;4799;50.996;4.754;2022-11-15T13:28:38;14.10;99.90
8862;DHT22;4799;50.996;4.754;2022-11-15T13:36:52;14.20;99.90
8862;DHT22;4799;50.996;4.754;2022-11-15T13:39:30;14.30;99.90
8862;DHT22;4799;50.996;4.754;2022-11-15T13:41:57;14.30;99.90
8862;DHT22;4799;50.996;4.754;2022-11-15T13:44:29;14.30;99.90
8862;DHT22;4799;50.996;4.754;2022-11-15T13:47:18;14.30;99.90
8862;DHT22;4799;50.996;4.754;2022-11-15T13:49:44;14.20;99.90
8862;DHT22;4799;50.996;4.754;2022-11-15T13:52:14;14.10;99.90
8862;DHT22;4799;50.996;4.754;2022-11-15T13:54:57;14.10;99.90
8862;DHT22;4799;50.996;4.754;2022-11-15T13:57:28;14.00;99.90
8862;DHT22;4799;50.996;4.754;2022-11-15T14:00:00;14.00;99.90
8862;DHT22;4799;50.996;4.754;2022-11-15T14:02:31;13.90;99.90
8862;DHT22;4799;50.996;4.754;2022-11-15T14:07:56;13.80;99.90
8862;DHT22;4799;50.996;4.754;2022-11-15T14:10:33;13.80;99.90
8862;DHT22;4799;50.996;4.754;2022-11-15T14:13:00;13.80;99.90
8862;DHT22;4799;50.996;4.754;2022-11-15T14:15:39;13.80;99.90
8862;DHT22;4799;50.996;4.754;2022-11-15T14:18:05;13.80;99.90
8862;DHT22;4799;50.996;4.754;2022-11-15T14:20:32;13.70;99.90
8862;DHT22;4799;50.996;4.754;2022-11-15T14:23:02;13.70;99.90
8862;DHT22;4799;50.996;4.754;2022-11-15T14:25:34;13.70;99.90
8862;DHT22;4799;50.996;4.754;2022-11-15T14:30:41;13.70;99.90
8862;DHT22;4799;50.996;4.754;2022-11-15T14:33:23;13.70;99.90
8862;DHT22;4799;50.996;4.754;2022-11-15T14:35:51;13.70;99.90
8862;DHT22;4799;50.996;4.754;2022-11-15T14:38:18;13.60;99.90
8862;DHT22;4799;50.996;4.754;2022-11-15T14:40:44;13.60;99.90
8862;DHT22;4799;50.996;4.754;2022-11-15T14:43:11;13.60;99.90
8862;DHT22;4799;50.996;4.754;2022-11-15T14:45:37;13.60;99.90
8862;DHT22;4799;50.996;4.754;2022-11-15T14:48:03;13.60;99.90
8862;DHT22;4799;50.996;4.754;2022-11-15T14:50:29;13.60;99.90
8862;DHT22;4799;50.996;4.754;2022-11-15T14:52:55;13.50;99.90
8862;DHT22;4799;50.996;4.754;2022-11-15T14:55:22;13.50;99.90
8862;DHT22;4799;50.996;4.754;2022-11-15T14:57:49;13.50;99.90
8862;DHT22;4799;50.996;4.754;2022-11-15T15:00:15;13.40;99.90
8862;DHT22;4799;50.996;4.754;2022-11-15T15:02:43;13.40;99.90
8862;DHT22;4799;50.996;4.754;2022-11-15T15:05:15;13.30;99.90
8862;DHT22;4799;50.996;4.754;2022-11-15T15:07:41;13.20;99.90
8862;DHT22;4799;50.996;4.754;2022-11-15T15:10:08;13.20;99.90
8862;DHT22;4799;50.996;4.754;2022-11-15T15:12:33;13.10;99.90
8862;DHT22;4799;50.996;4.754;2022-11-15T15:14:59;13.00;99.90
8862;DHT22;4799;50.996;4.754;2022-11-15T15:17:25;13.00;99.90
8862;DHT22;4799;50.996;4.754;2022-11-15T15:19:50;13.00;99.90
8862;DHT22;4799;50.996;4.754;2022-11-15T15:22:18;12.90;99.90
8862;DHT22;4799;50.996;4.754;2022-11-15T15:24:45;12.90;99.90
8862;DHT22;4799;50.996;4.754;2022-11-15T15:27:12;12.80;99.90
8862;DHT22;4799;50.996;4.754;2022-11-15T15:29:38;12.80;99.90
8862;DHT22;4799;50.996;4.754;2022-11-15T15:32:04;12.80;99.90
8862;DHT22;4799;50.996;4.754;2022-11-15T15:34:31;12.70;99.90
8862;DHT22;4799;50.996;4.754;2022-11-15T15:37:29;12.70;99.90
8862;DHT22;4799;50.996;4.754;2022-11-15T15:39:58;12.70;99.90
8862;DHT22;4799;50.996;4.754;2022-11-15T15:42:24;12.70;99.90
8862;DHT22;4799;50.996;4.754;2022-11-15T15:44:53;12.70;99.90
8862;DHT22;4799;50.996;4.754;2022-11-15T15:47:21;12.60;99.90
8862;DHT22;4799;50.996;4.754;2022-11-15T15:49:48;12.60;99.90
8862;DHT22;4799;50.996;4.754;2022-11-15T15:52:14;12.60;99.90
8862;DHT22;4799;50.996;4.754;2022-11-15T15:54:40;12.60;99.90
8862;DHT22;4799;50.996;4.754;2022-11-15T15:57:07;12.60;99.90
8862;DHT22;4799;50.996;4.754;2022-11-15T15:59:33;12.50;99.90
8862;DHT22;4799;50.996;4.754;2022-11-15T16:01:59;12.50;99.90
8862;DHT22;4799;50.996;4.754;2022-11-15T16:04:24;12.50;99.90
8862;DHT22;4799;50.996;4.754;2022-11-15T16:06:51;12.50;99.90
8862;DHT22;4799;50.996;4.754;2022-11-15T16:09:19;12.50;99.90
8862;DHT22;4799;50.996;4.754;2022-11-15T16:12:04;12.50;99.90
8862;DHT22;4799;50.996;4.754;2022-11-15T16:14:31;12.40;99.90
8862;DHT22;4799;50.996;4.754;2022-11-15T16:16:57;12.40;99.90
8862;DHT22;4799;50.996;4.754;2022-11-15T16:19:23;12.40;99.90
8862;DHT22;4799;50.996;4.754;2022-11-15T16:21:49;12.40;99.90
8862;DHT22;4799;50.996;4.754;2022-11-15T16:24:15;12.40;99.90
8862;DHT22;4799;50.996;4.754;2022-11-15T16:26:41;12.30;99.90
8862;DHT22;4799;50.996;4.754;2022-11-15T16:29:08;12.40;99.90
8862;DHT22;4799;50.996;4.754;2022-11-15T16:31:35;12.30;99.90
8862;DHT22;4799;50.996;4.754;2022-11-15T16:34:00;12.30;99.90
8862;DHT22;4799;50.996;4.754;2022-11-15T16:36:27;12.30;99.90
8862;DHT22;4799;50.996;4.754;2022-11-15T16:38:55;12.30;99.90
8862;DHT22;4799;50.996;4.754;2022-11-15T16:41:21;12.30;99.90
8862;DHT22;4799;50.996;4.754;2022-11-15T16:43:50;12.30;99.90
8862;DHT22;4799;50.996;4.754;2022-11-15T16:46:24;12.20;99.90
8862;DHT22;4799;50.996;4.754;2022-11-15T16:48:51;12.20;99.90
8862;DHT22;4799;50.996;4.754;2022-11-15T16:51:18;12.20;99.90
8862;DHT22;4799;50.996;4.754;2022-11-15T16:53:44;12.20;99.90
8862;DHT22;4799;50.996;4.754;2022-11-15T16:56:27;12.20;99.90
8862;DHT22;4799;50.996;4.754;2022-11-15T16:58:58;12.20;99.90
8862;DHT22;4799;50.996;4.754;2022-11-15T17:01:26;12.20;99.90
8862;DHT22;4799;50.996;4.754;2022-11-15T17:03:53;12.20;99.90
8862;DHT22;4799;50.996;4.754;2022-11-15T17:06:19;12.20;99.90
8862;DHT22;4799;50.996;4.754;2022-11-15T17:08:46;12.20;99.90
8862;DHT22;4799;50.996;4.754;2022-11-15T17:11:17;12.20;99.90
8862;DHT22;4799;50.996;4.754;2022-11-15T17:13:43;12.20;99.90
8862;DHT22;4799;50.996;4.754;2022-11-15T17:16:14;12.20;99.90
8862;DHT22;4799;50.996;4.754;2022-11-15T17:18:42;12.20;99.90
8862;DHT22;4799;50.996;4.754;2022-11-15T17:21:15;12.20;99.90
8862;DHT22;4799;50.996;4.754;2022-11-15T17:23:42;12.20;99.90
8862;DHT22;4799;50.996;4.754;2022-11-15T17:26:10;12.30;99.90
8862;DHT22;4799;50.996;4.754;2022-11-15T17:28:37;12.30;99.90
8862;DHT22;4799;50.996;4.754;2022-11-15T17:31:09;12.30;99.90
8862;DHT22;4799;50.996;4.754;2022-11-15T17:33:36;12.30;99.90
8862;DHT22;4799;50.996;4.754;2022-11-15T17:36:05;12.30;99.90
8862;DHT22;4799;50.996;4.754;2022-11-15T17:38:31;12.30;99.90
8862;DHT22;4799;50.996;4.754;2022-11-15T17:41:06;12.30;99.90
8862;DHT22;4799;50.996;4.754;2022-11-15T17:43:34;12.30;99.90
8862;DHT22;4799;50.996;4.754;2022-11-15T17:46:06;12.30;99.90
8862;DHT22;4799;50.996;4.754;2022-11-15T17:48:32;12.30;99.90
8862;DHT22;4799;50.996;4.754;2022-11-15T17:50:59;12.30;99.90
8862;DHT22;4799;50.996;4.754;2022-11-15T17:53:26;12.30;99.90
8862;DHT22;4799;50.996;4.754;2022-11-15T17:55:52;12.30;99.90
8862;DHT22;4799;50.996;4.754;2022-11-15T17:58:19;12.30;99.90
8862;DHT22;4799;50.996;4.754;2022-11-15T18:00:45;12.30;99.90
8862;DHT22;4799;50.996;4.754;2022-11-15T18:03:11;12.30;99.90
8862;DHT22;4799;50.996;4.754;2022-11-15T18:05:37;12.30;99.90
8862;DHT22;4799;50.996;4.754;2022-11-15T18:08:04;12.30;99.90
8862;DHT22;4799;50.996;4.754;2022-11-15T18:10:29;12.30;99.90
8862;DHT22;4799;50.996;4.754;2022-11-15T18:12:55;12.30;99.90
8862;DHT22;4799;50.996;4.754;2022-11-15T18:15:21;12.30;99.90
8862;DHT22;4799;50.996;4.754;2022-11-15T18:17:47;12.30;99.90
8862;DHT22;4799;50.996;4.754;2022-11-15T18:20:12;12.30;99.90
8862;DHT22;4799;50.996;4.754;2022-11-15T18:22:38;12.20;99.90
8862;DHT22;4799;50.996;4.754;2022-11-15T18:25:04;12.30;99.90